createdAt,value
2023-06-23T00:01:55.475Z,28.93
2023-06-23T00:06:52.082Z,28.54
2023-06-23T00:11:48.670Z,28.52
2023-06-23T00:16:45.888Z,28.31
2023-06-23T00:21:45.389Z,27.80
2023-06-23T00:26:42.107Z,28.02
2023-06-23T00:31:38.900Z,28.40
2023-06-23T00:36:39.723Z,28.39
2023-06-23T00:41:36.692Z,28.19
2023-06-23T00:46:33.533Z,28.56
2023-06-23T00:51:31.119Z,28.73
2023-06-23T00:56:28.660Z,28.38
2023-06-23T01:01:26.112Z,28.59
2023-06-23T01:06:26.145Z,28.59
2023-06-23T01:11:24.902Z,28.55
2023-06-23T01:16:25.935Z,28.66
2023-06-23T01:21:33.210Z,28.67
2023-06-23T01:26:36.909Z,28.72
2023-06-23T01:31:38.054Z,28.55
2023-06-23T01:36:38.472Z,27.80
2023-06-23T01:41:41.301Z,27.88
2023-06-23T01:46:40.535Z,27.87
2023-06-23T01:51:42.058Z,28.02
2023-06-23T01:56:40.382Z,28.20
2023-06-23T02:01:43.391Z,28.17
2023-06-23T02:06:40.966Z,28.06
2023-06-23T02:11:38.036Z,28.01
2023-06-23T02:16:35.470Z,28.20
2023-06-23T02:21:35.808Z,27.89
2023-06-23T02:26:34.029Z,27.74
2023-06-23T02:31:31.040Z,27.19
2023-06-23T02:36:30.747Z,27.50
2023-06-23T02:41:31.948Z,27.11
2023-06-23T02:46:34.969Z,27.15
2023-06-23T02:51:33.957Z,27.01
2023-06-23T02:56:31.694Z,26.80
2023-06-23T03:01:29.389Z,26.57
2023-06-23T03:06:25.991Z,26.16
2023-06-23T03:11:22.572Z,25.91
2023-06-23T03:16:23.345Z,25.86
2023-06-23T03:21:22.882Z,25.55
2023-06-23T03:26:20.547Z,25.58
2023-06-23T03:31:18.568Z,25.57
2023-06-23T03:36:18.008Z,25.31
2023-06-23T03:41:15.423Z,25.37
2023-06-23T03:46:16.253Z,25.49
2023-06-23T03:51:14.689Z,25.37
2023-06-23T03:56:12.919Z,25.13
2023-06-23T04:01:25.260Z,25.23
2023-06-23T04:06:23.441Z,25.16
2023-06-23T04:11:21.343Z,25.44
2023-06-23T04:16:18.597Z,25.33
2023-06-23T04:21:16.892Z,25.59
2023-06-23T04:26:13.995Z,25.52
2023-06-23T04:31:12.079Z,25.67
2023-06-23T04:36:12.059Z,25.92
2023-06-23T04:41:14.049Z,26.08
2023-06-23T04:46:15.946Z,25.92
2023-06-23T04:51:15.034Z,26.17
2023-06-23T04:56:15.968Z,26.26
2023-06-23T05:01:14.471Z,26.61
2023-06-23T05:06:13.698Z,26.27
2023-06-23T05:11:11.539Z,26.27
2023-06-23T05:16:11.315Z,26.55
2023-06-23T05:21:09.222Z,26.75
2023-06-23T05:26:09.901Z,26.83
2023-06-23T05:31:06.871Z,26.89
2023-06-23T05:36:05.351Z,26.87
2023-06-23T05:41:04.232Z,27.04
2023-06-23T05:46:04.532Z,27.22
2023-06-23T05:51:02.849Z,27.55
2023-06-23T05:56:01.692Z,27.88
2023-06-23T06:01:01.015Z,27.92
2023-06-23T06:06:02.748Z,28.02
2023-06-23T06:11:01.205Z,27.81
2023-06-23T06:15:58.562Z,27.72
2023-06-23T06:20:57.689Z,27.92
2023-06-23T06:25:56.117Z,28.38
2023-06-23T06:30:54.656Z,28.65
2023-06-23T06:35:52.484Z,28.87
2023-06-23T06:40:54.282Z,29.12
2023-06-23T06:45:51.574Z,29.34
2023-06-23T06:50:48.770Z,29.30
2023-06-23T06:55:46.781Z,29.53
2023-06-23T07:00:47.426Z,29.58
2023-06-23T07:05:44.476Z,29.75
2023-06-23T07:10:41.346Z,29.91
2023-06-23T07:15:38.055Z,30.09
2023-06-23T07:20:35.858Z,30.20
2023-06-23T07:25:32.797Z,30.34
2023-06-23T07:30:29.724Z,30.34
2023-06-23T07:35:26.486Z,30.33
2023-06-23T07:40:23.973Z,30.46
2023-06-23T07:45:21.477Z,30.51
2023-06-23T07:50:18.406Z,30.71
2023-06-23T07:55:18.926Z,30.75
2023-06-23T08:00:22.033Z,30.75
2023-06-23T08:05:18.817Z,30.95
2023-06-23T08:10:16.028Z,31.02
2023-06-23T08:15:19.127Z,31.07
2023-06-23T08:33:00.650Z,31.33
2023-06-23T08:37:57.670Z,31.65
2023-06-23T08:42:54.711Z,31.68
2023-06-23T08:47:54.729Z,31.66
2023-06-23T08:52:52.315Z,31.69
2023-06-23T08:57:51.255Z,31.71
2023-06-23T09:02:49.549Z,31.86
2023-06-23T09:07:46.549Z,31.86
2023-06-23T09:12:54.038Z,31.89
2023-06-23T09:17:50.844Z,31.99
2023-06-23T09:22:48.007Z,32.09
2023-06-23T09:27:45.483Z,32.05
2023-06-23T09:32:44.568Z,32.16
2023-06-23T09:37:54.912Z,32.22
2023-06-23T09:42:56.701Z,32.29
2023-06-23T09:47:53.498Z,32.20
2023-06-23T09:53:00.423Z,32.23
2023-06-23T09:57:57.808Z,32.46
2023-06-23T10:02:58.194Z,32.63
2023-06-23T10:08:06.254Z,32.69
2023-06-23T10:13:06.322Z,32.64
2023-06-23T10:18:03.189Z,32.74
2023-06-23T10:23:00.637Z,32.78
2023-06-23T10:28:00.758Z,32.76
2023-06-23T10:32:59.028Z,32.79
2023-06-23T10:38:00.861Z,32.70
2023-06-23T10:42:59.753Z,32.81
2023-06-23T10:47:56.805Z,32.93
2023-06-23T10:52:58.755Z,32.99
2023-06-23T10:58:15.912Z,33.09
2023-06-23T11:03:28.380Z,33.07
2023-06-23T11:08:33.093Z,33.11
2023-06-23T11:13:37.745Z,33.20
2023-06-23T11:18:48.489Z,33.20
2023-06-23T11:24:04.008Z,33.40
2023-06-23T11:29:01.664Z,33.28
2023-06-23T11:34:13.149Z,33.17
2023-06-23T11:39:12.818Z,33.33
2023-06-23T11:44:17.103Z,33.37
2023-06-23T11:49:30.373Z,33.49
2023-06-23T11:54:31.697Z,33.57
2023-06-23T11:59:37.811Z,33.30
2023-06-23T12:04:37.420Z,33.30
2023-06-23T12:09:34.526Z,33.43
2023-06-23T12:14:31.957Z,33.46
2023-06-23T12:19:38.294Z,33.28
2023-06-23T12:24:35.353Z,33.54
2023-06-23T12:29:32.388Z,33.50
2023-06-23T12:34:34.237Z,33.60
2023-06-23T12:39:31.028Z,33.66
2023-06-23T12:44:31.582Z,33.78
2023-06-23T12:49:29.063Z,33.74
2023-06-23T12:54:27.161Z,33.74
2023-06-23T12:59:24.121Z,33.76
2023-06-23T13:04:21.259Z,33.86
2023-06-23T13:09:18.442Z,34.00
2023-06-23T13:14:16.025Z,33.92
2023-06-23T13:19:13.421Z,34.06
2023-06-23T13:24:12.450Z,34.09
2023-06-23T13:29:09.576Z,34.16
2023-06-23T13:34:08.053Z,34.21
2023-06-23T13:39:05.132Z,34.23
2023-06-23T13:44:01.981Z,34.28
2023-06-23T13:49:47.431Z,34.30
2023-06-23T13:54:45.076Z,34.26
2023-06-23T13:59:42.362Z,34.30
2023-06-23T14:04:39.303Z,34.33
2023-06-23T14:09:36.042Z,34.32
2023-06-23T14:14:33.602Z,34.44
2023-06-23T14:19:33.085Z,34.43
2023-06-23T14:24:29.938Z,34.47
2023-06-23T14:29:27.792Z,34.42
2023-06-23T14:34:25.656Z,34.49
2023-06-23T14:39:22.333Z,34.65
2023-06-23T14:44:19.378Z,34.63
2023-06-23T14:49:16.170Z,34.63
2023-06-23T14:54:13.663Z,34.55
2023-06-23T14:59:10.347Z,34.52
2023-06-23T15:04:10.133Z,34.46
2023-06-23T15:09:06.949Z,34.43
2023-06-23T15:14:04.342Z,34.12
2023-06-23T15:19:01.216Z,34.10
2023-06-23T15:23:58.167Z,34.27
2023-06-23T15:28:55.016Z,34.32
2023-06-23T15:33:52.484Z,34.02
2023-06-23T15:38:52.015Z,34.18
2023-06-23T15:43:51.966Z,34.29
2023-06-23T15:48:48.723Z,34.20
2023-06-23T15:53:46.100Z,34.19
2023-06-23T15:58:42.799Z,34.16
2023-06-23T16:03:39.791Z,34.32
2023-06-23T16:08:39.940Z,34.09
2023-06-23T16:13:37.824Z,34.00
2023-06-23T16:18:34.756Z,33.93
2023-06-23T16:23:31.600Z,33.86
2023-06-23T16:28:28.362Z,34.04
2023-06-23T16:33:25.797Z,33.80
2023-06-23T16:38:22.549Z,34.08
2023-06-23T16:43:20.996Z,33.89
2023-06-23T16:48:17.817Z,33.82
2023-06-23T16:53:21.059Z,33.75
2023-06-23T16:58:17.928Z,33.63
2023-06-23T17:03:14.844Z,33.35
2023-06-23T17:08:15.667Z,33.56
2023-06-23T17:13:13.052Z,33.44
2023-06-23T17:18:09.797Z,33.36
2023-06-23T17:23:06.440Z,33.12
2023-06-23T17:28:03.621Z,33.19
2023-06-23T17:33:01.763Z,32.85
2023-06-23T17:37:58.941Z,33.00
2023-06-23T17:42:58.020Z,32.77
2023-06-23T17:47:56.714Z,32.61
2023-06-23T17:52:54.368Z,32.29
2023-06-23T17:57:51.279Z,32.38
2023-06-23T18:02:48.548Z,32.27
2023-06-23T18:07:48.170Z,32.34
2023-06-23T18:12:45.552Z,32.23
2023-06-23T18:17:42.369Z,32.34
2023-06-23T18:22:39.113Z,32.01
2023-06-23T18:27:36.870Z,32.18
2023-06-23T18:32:44.151Z,31.85
2023-06-23T18:37:41.606Z,31.82
2023-06-23T18:42:39.013Z,31.81
2023-06-23T18:47:35.820Z,31.73
2023-06-23T18:52:33.418Z,31.59
2023-06-23T18:57:31.995Z,31.77
2023-06-23T19:02:28.610Z,31.48
2023-06-23T19:07:25.426Z,31.52
2023-06-23T19:12:22.845Z,31.25
2023-06-23T19:17:19.566Z,31.36
2023-06-23T19:22:19.525Z,31.31
2023-06-23T19:27:16.255Z,31.09
2023-06-23T19:32:13.641Z,31.08
2023-06-23T19:37:10.411Z,31.25
2023-06-23T19:42:10.278Z,30.91
2023-06-23T19:47:07.146Z,30.76
2023-06-23T19:52:05.162Z,30.89
2023-06-23T19:57:01.896Z,30.72
2023-06-23T20:01:58.714Z,30.67
2023-06-23T20:06:55.601Z,30.62
2023-06-23T20:11:56.108Z,30.46
2023-06-23T20:16:54.713Z,30.24
2023-06-23T20:21:52.143Z,30.01
2023-06-23T20:26:48.785Z,29.81
2023-06-23T20:31:46.159Z,29.53
2023-06-23T20:36:45.214Z,29.32
2023-06-23T20:41:43.391Z,29.22
2023-06-23T20:46:43.201Z,29.17
2023-06-23T20:51:41.782Z,28.95
2023-06-23T20:56:38.456Z,28.82
2023-06-23T21:01:35.195Z,28.73
2023-06-23T21:06:32.464Z,28.58
2023-06-23T21:11:29.806Z,28.64
2023-06-23T21:16:26.909Z,28.55
2023-06-23T21:21:41.501Z,28.71
2023-06-23T21:26:38.847Z,28.75
2023-06-23T21:31:35.552Z,28.62
2023-06-23T21:36:32.272Z,28.58
2023-06-23T21:41:28.907Z,28.75
2023-06-23T21:46:26.369Z,28.70
2023-06-23T21:51:23.100Z,28.51
2023-06-23T21:56:19.703Z,28.31
2023-06-23T22:01:16.510Z,28.18
2023-06-23T22:06:16.759Z,27.93
2023-06-23T22:11:13.291Z,28.02
2023-06-23T22:16:09.894Z,27.84
2023-06-23T22:21:06.643Z,27.94
2023-06-23T22:26:03.899Z,27.90
2023-06-23T22:31:00.526Z,27.85
2023-06-23T22:35:57.180Z,28.17
2023-06-23T22:40:53.755Z,28.21
2023-06-23T22:45:52.533Z,28.18
2023-06-23T22:50:49.195Z,28.37
2023-06-23T22:55:45.841Z,28.39
2023-06-23T23:00:42.439Z,28.42
2023-06-23T23:05:39.788Z,28.46
2023-06-23T23:10:37.988Z,28.91
2023-06-23T23:15:34.758Z,28.93
2023-06-23T23:20:31.342Z,29.00
2023-06-23T23:25:28.986Z,29.00
2023-06-23T23:30:25.635Z,28.84
2023-06-23T23:35:22.226Z,28.73
2023-06-23T23:40:18.978Z,28.70
2023-06-23T23:45:19.203Z,28.40
2023-06-23T23:50:16.328Z,28.38
2023-06-23T23:55:12.908Z,28.20
